sensor_id;sensor_type;location;lat;lon;timestamp;pressure;altitude;pressure_sealevel;temperature;humidity
34205;BME280;20471;49.680;20.074;2022-09-09T00:02:03;96827.47;;;17.60;79.61
34205;BME280;20471;49.680;20.074;2022-09-09T00:04:42;96828.83;;;17.60;79.62
34205;BME280;20471;49.680;20.074;2022-09-09T00:10:18;96834.55;;;17.59;79.71
34205;BME280;20471;49.680;20.074;2022-09-09T00:19:02;96825.52;;;17.53;79.97
34205;BME280;20471;49.680;20.074;2022-09-09T00:22:22;96826.08;;;17.55;80.01
34205;BME280;20471;49.680;20.074;2022-09-09T00:24:51;96832.09;;;17.57;80.04
34205;BME280;20471;49.680;20.074;2022-09-09T00:27:31;96836.20;;;17.60;80.15
34205;BME280;20471;49.680;20.074;2022-09-09T00:32:58;96835.66;;;17.60;80.12
34205;BME280;20471;49.680;20.074;2022-09-09T00:35:31;96837.84;;;17.61;80.07
34205;BME280;20471;49.680;20.074;2022-09-09T00:44:20;96840.58;;;17.63;80.03
34205;BME280;20471;49.680;20.074;2022-09-09T00:46:54;96840.86;;;17.64;79.98
34205;BME280;20471;49.680;20.074;2022-09-09T00:55:29;96840.53;;;17.53;80.22
34205;BME280;20471;49.680;20.074;2022-09-09T00:58:14;96847.63;;;17.54;80.28
34205;BME280;20471;49.680;20.074;2022-09-09T01:00:46;96850.36;;;17.54;80.35
34205;BME280;20471;49.680;20.074;2022-09-09T01:03:36;96851.45;;;17.56;80.30
34205;BME280;20471;49.680;20.074;2022-09-09T01:06:30;96848.47;;;17.57;80.34
34205;BME280;20471;49.680;20.074;2022-09-09T01:14:40;96863.45;;;17.47;80.58
34205;BME280;20471;49.680;20.074;2022-09-09T01:17:44;96866.72;;;17.47;80.69
34205;BME280;20471;49.680;20.074;2022-09-09T01:20:24;96865.62;;;17.45;80.69
34205;BME280;20471;49.680;20.074;2022-09-09T01:23:27;96873.53;;;17.44;81.01
34205;BME280;20471;49.680;20.074;2022-09-09T01:26:13;96867.25;;;17.44;80.87
34205;BME280;20471;49.680;20.074;2022-09-09T01:28:46;96862.59;;;17.39;80.93
34205;BME280;20471;49.680;20.074;2022-09-09T01:31:18;96876.52;;;17.38;80.97
34205;BME280;20471;49.680;20.074;2022-09-09T01:33:46;96871.88;;;17.36;80.98
34205;BME280;20471;49.680;20.074;2022-09-09T01:38:48;96881.42;;;17.36;81.05
34205;BME280;20471;49.680;20.074;2022-09-09T01:41:14;96884.95;;;17.34;81.05
34205;BME280;20471;49.680;20.074;2022-09-09T01:43:41;96882.50;;;17.35;81.16
34205;BME280;20471;49.680;20.074;2022-09-09T01:46:08;96887.94;;;17.32;81.20
34205;BME280;20471;49.680;20.074;2022-09-09T01:48:34;96889.01;;;17.28;81.14
34205;BME280;20471;49.680;20.074;2022-09-09T01:51:01;96898.81;;;17.27;81.22
34205;BME280;20471;49.680;20.074;2022-09-09T01:53:27;96898.02;;;17.29;81.32
34205;BME280;20471;49.680;20.074;2022-09-09T02:04:48;96901.30;;;17.26;81.36
34205;BME280;20471;49.680;20.074;2022-09-09T02:10:28;96902.94;;;17.32;81.48
34205;BME280;20471;49.680;20.074;2022-09-09T02:12:49;96899.09;;;17.28;81.56
34205;BME280;20471;49.680;20.074;2022-09-09T02:15:27;96906.20;;;17.26;81.58
34205;BME280;20471;49.680;20.074;2022-09-09T02:18:09;96908.36;;;17.27;81.59
34205;BME280;20471;49.680;20.074;2022-09-09T02:20:37;96910.29;;;17.29;81.66
34205;BME280;20471;49.680;20.074;2022-09-09T02:23:07;96912.45;;;17.27;81.67
34205;BME280;20471;49.680;20.074;2022-09-09T02:25:36;96919.27;;;17.27;81.66
34205;BME280;20471;49.680;20.074;2022-09-09T02:28:06;96923.11;;;17.28;81.74
34205;BME280;20471;49.680;20.074;2022-09-09T02:30:34;96918.75;;;17.30;81.68
34205;BME280;20471;49.680;20.074;2022-09-09T02:33:03;96921.74;;;17.28;81.71
34205;BME280;20471;49.680;20.074;2022-09-09T02:35:32;96921.48;;;17.30;81.70
34205;BME280;20471;49.680;20.074;2022-09-09T02:38:04;96924.48;;;17.31;81.75
34205;BME280;20471;49.680;20.074;2022-09-09T02:40:33;96921.46;;;17.27;81.77
34205;BME280;20471;49.680;20.074;2022-09-09T02:43:00;96927.20;;;17.26;81.80
34205;BME280;20471;49.680;20.074;2022-09-09T02:45:47;96923.12;;;17.26;81.83
34205;BME280;20471;49.680;20.074;2022-09-09T02:48:14;96930.73;;;17.24;81.87
34205;BME280;20471;49.680;20.074;2022-09-09T02:50:54;96933.98;;;17.21;81.95
34205;BME280;20471;49.680;20.074;2022-09-09T02:54:10;96931.23;;;17.13;81.94
34205;BME280;20471;49.680;20.074;2022-09-09T02:56:11;96937.75;;;17.15;82.04
34205;BME280;20471;49.680;20.074;2022-09-09T02:58:36;96943.21;;;17.15;82.10
34205;BME280;20471;49.680;20.074;2022-09-09T03:01:02;96949.51;;;17.18;82.11
34205;BME280;20471;49.680;20.074;2022-09-09T03:03:29;96944.34;;;17.19;81.99
34205;BME280;20471;49.680;20.074;2022-09-09T03:05:56;96948.14;;;17.18;81.93
34205;BME280;20471;49.680;20.074;2022-09-09T03:08:23;96945.42;;;17.18;81.99
34205;BME280;20471;49.680;20.074;2022-09-09T03:10:49;96945.14;;;17.17;82.04
34205;BME280;20471;49.680;20.074;2022-09-09T03:13:16;96943.50;;;17.13;82.10
34205;BME280;20471;49.680;20.074;2022-09-09T03:15:44;96944.87;;;17.13;82.10
34205;BME280;20471;49.680;20.074;2022-09-09T03:18:11;96948.66;;;17.15;82.12
34205;BME280;20471;49.680;20.074;2022-09-09T03:20:37;96950.86;;;17.13;82.16
34205;BME280;20471;49.680;20.074;2022-09-09T03:23:04;96953.31;;;17.12;82.17
34205;BME280;20471;49.680;20.074;2022-09-09T03:25:30;96953.31;;;17.12;82.23
34205;BME280;20471;49.680;20.074;2022-09-09T03:27:57;96953.88;;;17.14;82.19
34205;BME280;20471;49.680;20.074;2022-09-09T03:30:25;96957.14;;;17.13;82.20
34205;BME280;20471;49.680;20.074;2022-09-09T03:32:53;96953.55;;;17.08;82.23
34205;BME280;20471;49.680;20.074;2022-09-09T03:35:21;96951.34;;;17.05;82.30
34205;BME280;20471;49.680;20.074;2022-09-09T03:37:47;96950.77;;;17.03;82.39
34205;BME280;20471;49.680;20.074;2022-09-09T03:40:14;96952.69;;;17.00;82.46
34205;BME280;20471;49.680;20.074;2022-09-09T03:42:41;96953.24;;;17.04;82.52
34205;BME280;20471;49.680;20.074;2022-09-09T03:45:09;96956.81;;;17.07;82.45
34205;BME280;20471;49.680;20.074;2022-09-09T03:47:36;96960.13;;;17.12;82.40
34205;BME280;20471;49.680;20.074;2022-09-09T03:50:04;96954.67;;;17.12;82.33
34205;BME280;20471;49.680;20.074;2022-09-09T03:52:35;96964.22;;;17.12;82.28
34205;BME280;20471;49.680;20.074;2022-09-09T03:55:03;96964.78;;;17.14;82.31
34205;BME280;20471;49.680;20.074;2022-09-09T03:57:30;96957.96;;;17.14;82.27
34205;BME280;20471;49.680;20.074;2022-09-09T03:59:57;96965.02;;;17.10;82.27
34205;BME280;20471;49.680;20.074;2022-09-09T04:02:26;96957.94;;;17.11;82.30
34205;BME280;20471;49.680;20.074;2022-09-09T04:04:52;96964.22;;;17.12;82.33
34205;BME280;20471;49.680;20.074;2022-09-09T04:07:19;96965.81;;;17.08;82.31
34205;BME280;20471;49.680;20.074;2022-09-09T04:09:45;96967.98;;;17.06;82.44
34205;BME280;20471;49.680;20.074;2022-09-09T04:12:12;96974.28;;;17.09;82.48
34205;BME280;20471;49.680;20.074;2022-09-09T04:14:38;96976.20;;;17.11;82.42
34205;BME280;20471;49.680;20.074;2022-09-09T04:17:05;96979.50;;;17.13;82.34
34205;BME280;20471;49.680;20.074;2022-09-09T04:19:32;96981.41;;;17.12;82.36
34205;BME280;20471;49.680;20.074;2022-09-09T04:21:59;96978.93;;;17.11;82.40
34205;BME280;20471;49.680;20.074;2022-09-09T04:24:26;96977.56;;;17.11;82.42
34205;BME280;20471;49.680;20.074;2022-09-09T04:26:54;96978.65;;;17.10;82.36
34205;BME280;20471;49.680;20.074;2022-09-09T04:29:23;96977.56;;;17.11;82.40
34205;BME280;20471;49.680;20.074;2022-09-09T04:31:49;96973.48;;;17.11;82.46
34205;BME280;20471;49.680;20.074;2022-09-09T04:34:16;96974.33;;;17.14;82.44
34205;BME280;20471;49.680;20.074;2022-09-09T04:36:43;96973.49;;;17.16;82.41
34205;BME280;20471;49.680;20.074;2022-09-09T04:39:09;96978.14;;;17.18;82.38
34205;BME280;20471;49.680;20.074;2022-09-09T04:41:36;96978.71;;;17.20;82.31
34205;BME280;20471;49.680;20.074;2022-09-09T04:44:03;96978.45;;;17.21;82.20
34205;BME280;20471;49.680;20.074;2022-09-09T04:46:30;96975.72;;;17.21;82.12
34205;BME280;20471;49.680;20.074;2022-09-09T04:48:56;96979.27;;;17.22;82.03
34205;BME280;20471;49.680;20.074;2022-09-09T04:51:23;96977.06;;;17.19;82.02
34205;BME280;20471;49.680;20.074;2022-09-09T04:53:49;96978.97;;;17.18;82.08
34205;BME280;20471;49.680;20.074;2022-09-09T04:56:17;96976.22;;;17.16;82.20
34205;BME280;20471;49.680;20.074;2022-09-09T04:58:44;96979.22;;;17.12;82.22
34205;BME280;20471;49.680;20.074;2022-09-09T05:01:19;96981.94;;;17.12;82.33
34205;BME280;20471;49.680;20.074;2022-09-09T05:03:47;96981.69;;;17.13;82.35
34205;BME280;20471;49.680;20.074;2022-09-09T05:06:19;96981.14;;;17.14;82.45
34205;BME280;20471;49.680;20.074;2022-09-09T05:08:47;96979.75;;;17.11;82.47
34205;BME280;20471;49.680;20.074;2022-09-09T05:11:17;96980.81;;;17.08;82.54
34205;BME280;20471;49.680;20.074;2022-09-09T05:13:48;96976.44;;;17.07;82.53
34205;BME280;20471;49.680;20.074;2022-09-09T05:16:16;96976.20;;;17.11;82.62
34205;BME280;20471;49.680;20.074;2022-09-09T05:18:45;96972.94;;;17.11;82.70
34205;BME280;20471;49.680;20.074;2022-09-09T05:21:13;96978.09;;;17.08;82.76
34205;BME280;20471;49.680;20.074;2022-09-09T05:23:41;96980.53;;;17.07;82.78
34205;BME280;20471;49.680;20.074;2022-09-09T05:26:11;96983.56;;;17.10;82.87
34205;BME280;20471;49.680;20.074;2022-09-09T05:28:39;96986.84;;;17.15;82.88
34205;BME280;20471;49.680;20.074;2022-09-09T05:31:07;96986.31;;;17.13;82.86
34205;BME280;20471;49.680;20.074;2022-09-09T05:33:35;96993.95;;;17.13;82.90
34205;BME280;20471;49.680;20.074;2022-09-09T05:36:07;96994.51;;;17.18;82.98
34205;BME280;20471;49.680;20.074;2022-09-09T05:38:40;97000.01;;;17.23;82.92
34205;BME280;20471;49.680;20.074;2022-09-09T05:41:08;97002.22;;;17.26;82.79
34205;BME280;20471;49.680;20.074;2022-09-09T05:43:37;97000.29;;;17.24;82.72
34205;BME280;20471;49.680;20.074;2022-09-09T05:46:09;97004.13;;;17.25;82.79
34205;BME280;20471;49.680;20.074;2022-09-09T05:48:40;97003.31;;;17.30;82.85
34205;BME280;20471;49.680;20.074;2022-09-09T05:51:10;96994.59;;;17.31;82.90
34205;BME280;20471;49.680;20.074;2022-09-09T05:53:44;96987.81;;;17.36;82.89
34205;BME280;20471;49.680;20.074;2022-09-09T05:56:17;96991.10;;;17.38;82.99
34205;BME280;20471;49.680;20.074;2022-09-09T05:58:46;97000.66;;;17.43;82.91
34205;BME280;20471;49.680;20.074;2022-09-09T06:01:18;97002.61;;;17.47;82.65
34205;BME280;20471;49.680;20.074;2022-09-09T06:03:47;97005.34;;;17.52;82.60
34205;BME280;20471;49.680;20.074;2022-09-09T06:06:18;97004.58;;;17.59;82.37
34205;BME280;20471;49.680;20.074;2022-09-09T06:08:47;96999.70;;;17.64;82.17
34205;BME280;20471;49.680;20.074;2022-09-09T06:11:22;97004.66;;;17.70;82.15
34205;BME280;20471;49.680;20.074;2022-09-09T06:13:57;97007.95;;;17.77;82.08
34205;BME280;20471;49.680;20.074;2022-09-09T06:16:26;97015.08;;;17.83;82.00
34205;BME280;20471;49.680;20.074;2022-09-09T06:18:54;97012.64;;;17.89;81.89
34205;BME280;20471;49.680;20.074;2022-09-09T06:21:24;97016.48;;;17.93;81.71
34205;BME280;20471;49.680;20.074;2022-09-09T06:23:52;97014.84;;;17.92;81.75
34205;BME280;20471;49.680;20.074;2022-09-09T06:26:23;97019.22;;;17.93;81.55
34205;BME280;20471;49.680;20.074;2022-09-09T06:28:54;97015.16;;;17.98;81.48
34205;BME280;20471;49.680;20.074;2022-09-09T06:31:23;97020.89;;;18.04;81.37
34205;BME280;20471;49.680;20.074;2022-09-09T06:33:54;97022.25;;;18.04;81.55
34205;BME280;20471;49.680;20.074;2022-09-09T06:36:25;97018.14;;;18.02;81.43
34205;BME280;20471;49.680;20.074;2022-09-09T06:38:53;97020.08;;;18.06;81.35
34205;BME280;20471;49.680;20.074;2022-09-09T06:41:21;97016.83;;;18.09;81.23
34205;BME280;20471;49.680;20.074;2022-09-09T06:43:50;97019.29;;;18.11;81.33
34205;BME280;20471;49.680;20.074;2022-09-09T06:46:19;97017.38;;;18.11;80.53
34205;BME280;20471;49.680;20.074;2022-09-09T06:48:48;97017.38;;;18.11;80.06
34205;BME280;20471;49.680;20.074;2022-09-09T06:51:18;97010.30;;;18.20;80.21
34205;BME280;20471;49.680;20.074;2022-09-09T06:53:58;97009.49;;;18.30;80.17
34205;BME280;20471;49.680;20.074;2022-09-09T06:56:26;97016.05;;;18.36;79.99
34205;BME280;20471;49.680;20.074;2022-09-09T06:58:55;97015.78;;;18.38;79.86
34205;BME280;20471;49.680;20.074;2022-09-09T07:01:26;97007.06;;;18.44;79.65
34205;BME280;20471;49.680;20.074;2022-09-09T07:03:59;97009.78;;;18.49;79.12
34205;BME280;20471;49.680;20.074;2022-09-09T07:06:28;97006.27;;;18.56;78.75
34205;BME280;20471;49.680;20.074;2022-09-09T07:08:59;97002.73;;;18.65;78.39
34205;BME280;20471;49.680;20.074;2022-09-09T07:11:31;97000.27;;;18.74;78.24
34205;BME280;20471;49.680;20.074;2022-09-09T07:14:09;97003.85;;;18.82;77.96
34205;BME280;20471;49.680;20.074;2022-09-09T07:16:38;97011.75;;;18.84;77.51
34205;BME280;20471;49.680;20.074;2022-09-09T07:19:05;97009.58;;;18.88;77.74
34205;BME280;20471;49.680;20.074;2022-09-09T07:21:34;97011.50;;;18.90;77.90
34205;BME280;20471;49.680;20.074;2022-09-09T07:24:03;97009.05;;;18.94;77.75
34205;BME280;20471;49.680;20.074;2022-09-09T07:26:31;97009.58;;;19.01;77.74
34205;BME280;20471;49.680;20.074;2022-09-09T07:28:58;97010.92;;;19.08;77.81
34205;BME280;20471;49.680;20.074;2022-09-09T07:31:32;97010.11;;;19.16;77.48
34205;BME280;20471;49.680;20.074;2022-09-09T07:33:59;97012.26;;;19.34;77.42
34205;BME280;20471;49.680;20.074;2022-09-09T07:36:28;97014.18;;;19.41;76.86
34205;BME280;20471;49.680;20.074;2022-09-09T07:38:58;97018.28;;;19.43;76.60
34205;BME280;20471;49.680;20.074;2022-09-09T07:41:36;97024.27;;;19.48;76.64
34205;BME280;20471;49.680;20.074;2022-09-09T07:44:18;97018.29;;;19.51;76.40
34205;BME280;20471;49.680;20.074;2022-09-09T07:46:42;97023.73;;;19.61;76.19
34205;BME280;20471;49.680;20.074;2022-09-09T07:49:12;97022.23;;;19.97;76.36
34205;BME280;20471;49.680;20.074;2022-09-09T07:51:41;97023.17;;;20.36;75.85
34205;BME280;20471;49.680;20.074;2022-09-09T07:54:11;97002.12;;;20.66;74.00
34205;BME280;20471;49.680;20.074;2022-09-09T07:56:40;97002.12;;;20.66;74.00
34205;BME280;20471;49.680;20.074;2022-09-09T07:59:07;97026.22;;;20.74;73.94
34205;BME280;20471;49.680;20.074;2022-09-09T08:01:38;97011.99;;;20.67;73.41
34205;BME280;20471;49.680;20.074;2022-09-09T08:04:09;97033.08;;;20.74;73.12
34205;BME280;20471;49.680;20.074;2022-09-09T08:06:42;97010.94;;;20.63;72.98
34205;BME280;20471;49.680;20.074;2022-09-09T08:09:10;97052.30;;;20.66;71.52
34205;BME280;20471;49.680;20.074;2022-09-09T08:11:41;97052.30;;;20.66;71.52
34205;BME280;20471;49.680;20.074;2022-09-09T08:17:17;97049.03;;;20.05;71.47
34205;BME280;20471;49.680;20.074;2022-09-09T08:19:45;97049.03;;;20.05;71.47
34205;BME280;20471;49.680;20.074;2022-09-09T08:22:14;97050.76;;;19.91;71.78
34205;BME280;20471;49.680;20.074;2022-09-09T08:25:16;97041.73;;;19.83;72.31
34205;BME280;20471;49.680;20.074;2022-09-09T08:27:55;97037.38;;;19.74;72.79
34205;BME280;20471;49.680;20.074;2022-09-09T08:30:22;97032.18;;;19.72;73.21
34205;BME280;20471;49.680;20.074;2022-09-09T08:32:50;97039.03;;;19.72;73.30
34205;BME280;20471;49.680;20.074;2022-09-09T08:35:17;97048.02;;;19.88;73.64
34205;BME280;20471;49.680;20.074;2022-09-09T08:37:45;97051.82;;;19.95;72.87
34205;BME280;20471;49.680;20.074;2022-09-09T08:40:20;97052.91;;;19.99;72.50
34205;BME280;20471;49.680;20.074;2022-09-09T08:42:49;97056.75;;;19.95;72.54
34205;BME280;20471;49.680;20.074;2022-09-09T08:45:29;97062.77;;;19.97;73.10
34205;BME280;20471;49.680;20.074;2022-09-09T08:48:20;97059.66;;;20.19;72.68
34205;BME280;20471;49.680;20.074;2022-09-09T08:51:03;97058.23;;;20.34;71.67
34205;BME280;20471;49.680;20.074;2022-09-09T08:53:44;97055.50;;;20.32;70.98
34205;BME280;20471;49.680;20.074;2022-09-09T08:56:18;97050.70;;;20.63;71.24
34205;BME280;20471;49.680;20.074;2022-09-09T08:58:53;97051.77;;;21.03;70.83
34205;BME280;20471;49.680;20.074;2022-09-09T09:04:59;97051.80;;;21.87;70.08
34205;BME280;20471;49.680;20.074;2022-09-09T09:10:35;97059.75;;;22.58;68.01
34205;BME280;20471;49.680;20.074;2022-09-09T09:15:53;97050.94;;;22.96;66.78
34205;BME280;20471;49.680;20.074;2022-09-09T09:18:22;97051.13;;;23.02;66.28
34205;BME280;20471;49.680;20.074;2022-09-09T09:21:11;97052.67;;;23.08;66.00
34205;BME280;20471;49.680;20.074;2022-09-09T09:23:49;97051.30;;;23.08;65.31
34205;BME280;20471;49.680;20.074;2022-09-09T09:26:25;97055.98;;;23.08;64.81
34205;BME280;20471;49.680;20.074;2022-09-09T09:28:59;97051.87;;;23.24;64.56
34205;BME280;20471;49.680;20.074;2022-09-09T09:31:30;97050.35;;;23.31;64.46
34205;BME280;20471;49.680;20.074;2022-09-09T09:33:59;97047.19;;;23.57;63.71
34205;BME280;20471;49.680;20.074;2022-09-09T09:37:01;97044.77;;;23.83;63.42
34205;BME280;20471;49.680;20.074;2022-09-09T09:39:07;97046.05;;;24.15;63.42
34205;BME280;20471;49.680;20.074;2022-09-09T09:41:40;97043.84;;;24.56;62.73
34205;BME280;20471;49.680;20.074;2022-09-09T09:44:29;97043.06;;;24.77;61.62
34205;BME280;20471;49.680;20.074;2022-09-09T09:47:15;97036.67;;;24.80;61.31
34205;BME280;20471;49.680;20.074;2022-09-09T09:49:57;97033.36;;;24.91;61.35
34205;BME280;20471;49.680;20.074;2022-09-09T09:52:28;97030.83;;;25.17;59.85
34205;BME280;20471;49.680;20.074;2022-09-09T09:54:57;97035.16;;;25.21;59.06
34205;BME280;20471;49.680;20.074;2022-09-09T09:57:28;97023.81;;;25.22;58.14
34205;BME280;20471;49.680;20.074;2022-09-09T10:00:14;97033.64;;;25.03;58.08
34205;BME280;20471;49.680;20.074;2022-09-09T10:02:44;97023.38;;;24.82;56.90
34205;BME280;20471;49.680;20.074;2022-09-09T10:05:17;97027.30;;;24.42;57.91
34205;BME280;20471;49.680;20.074;2022-09-09T10:08:05;97025.77;;;24.25;58.11
34205;BME280;20471;49.680;20.074;2022-09-09T10:14:12;97028.30;;;24.35;56.50
34205;BME280;20471;49.680;20.074;2022-09-09T10:19:34;97029.22;;;24.55;56.19
34205;BME280;20471;49.680;20.074;2022-09-09T10:22:27;97023.41;;;24.68;55.61
34205;BME280;20471;49.680;20.074;2022-09-09T10:25:07;97011.96;;;24.74;54.92
34205;BME280;20471;49.680;20.074;2022-09-09T10:36:21;97025.69;;;25.35;53.83
34205;BME280;20471;49.680;20.074;2022-09-09T10:38:44;97017.35;;;25.58;53.69
34205;BME280;20471;49.680;20.074;2022-09-09T10:50:24;97020.14;;;26.17;51.71
34205;BME280;20471;49.680;20.074;2022-09-09T10:55:42;97023.07;;;26.32;51.45
34205;BME280;20471;49.680;20.074;2022-09-09T10:58:25;97019.50;;;26.40;51.21
34205;BME280;20471;49.680;20.074;2022-09-09T11:00:59;97014.77;;;26.20;51.25
34205;BME280;20471;49.680;20.074;2022-09-09T11:03:29;97011.46;;;26.01;51.59
34205;BME280;20471;49.680;20.074;2022-09-09T11:06:07;97016.47;;;25.91;51.55
34205;BME280;20471;49.680;20.074;2022-09-09T11:08:48;97017.08;;;25.79;52.10
34205;BME280;20471;49.680;20.074;2022-09-09T11:11:22;97023.11;;;25.81;51.73
34205;BME280;20471;49.680;20.074;2022-09-09T11:13:57;97020.13;;;25.69;51.43
34205;BME280;20471;49.680;20.074;2022-09-09T11:16:45;97017.10;;;25.57;51.52
34205;BME280;20471;49.680;20.074;2022-09-09T11:19:32;97020.00;;;25.40;50.57
34205;BME280;20471;49.680;20.074;2022-09-09T11:22:32;97014.61;;;25.24;51.39
34205;BME280;20471;49.680;20.074;2022-09-09T11:39:49;97027.77;;;25.49;49.86
34205;BME280;20471;49.680;20.074;2022-09-09T11:42:34;97027.28;;;25.59;49.43
34205;BME280;20471;49.680;20.074;2022-09-09T11:45:30;97034.38;;;25.62;48.34
34205;BME280;20471;49.680;20.074;2022-09-09T11:47:54;97035.31;;;25.58;48.82
34205;BME280;20471;49.680;20.074;2022-09-09T11:53:17;97023.14;;;25.70;48.93
34205;BME280;20471;49.680;20.074;2022-09-09T11:56:05;97021.19;;;25.59;48.19
34205;BME280;20471;49.680;20.074;2022-09-09T11:58:34;97023.00;;;25.53;49.11
34205;BME280;20471;49.680;20.074;2022-09-09T12:01:30;97015.34;;;25.49;49.50
34205;BME280;20471;49.680;20.074;2022-09-09T12:07:00;97017.84;;;25.48;50.46
34205;BME280;20471;49.680;20.074;2022-09-09T12:12:23;97013.17;;;25.80;50.48
34205;BME280;20471;49.680;20.074;2022-09-09T12:17:31;97013.14;;;25.91;50.19
34205;BME280;20471;49.680;20.074;2022-09-09T12:23:24;97013.73;;;25.99;49.98
34205;BME280;20471;49.680;20.074;2022-09-09T12:29:11;97020.44;;;25.87;49.67
34205;BME280;20471;49.680;20.074;2022-09-09T12:37:15;97008.08;;;25.42;49.54
34205;BME280;20471;49.680;20.074;2022-09-09T12:39:59;97006.98;;;25.52;48.67
34205;BME280;20471;49.680;20.074;2022-09-09T12:42:28;97017.44;;;25.44;49.12
34205;BME280;20471;49.680;20.074;2022-09-09T12:45:00;97024.97;;;25.41;49.52
34205;BME280;20471;49.680;20.074;2022-09-09T12:47:41;97017.19;;;25.43;49.56
34205;BME280;20471;49.680;20.074;2022-09-09T12:50:23;97019.48;;;25.49;49.79
34205;BME280;20471;49.680;20.074;2022-09-09T12:52:56;97018.23;;;25.67;49.73
34205;BME280;20471;49.680;20.074;2022-09-09T12:55:31;97015.94;;;25.80;49.72
34205;BME280;20471;49.680;20.074;2022-09-09T12:58:01;97010.81;;;25.96;49.26
34205;BME280;20471;49.680;20.074;2022-09-09T13:00:30;97008.66;;;25.84;48.43
34205;BME280;20471;49.680;20.074;2022-09-09T13:03:13;97005.98;;;25.90;48.82
34205;BME280;20471;49.680;20.074;2022-09-09T13:05:36;96999.75;;;25.96;48.43
34205;BME280;20471;49.680;20.074;2022-09-09T13:08:09;96992.44;;;26.08;47.80
34205;BME280;20471;49.680;20.074;2022-09-09T13:13:31;96991.68;;;26.25;47.50
34205;BME280;20471;49.680;20.074;2022-09-09T13:16:01;96990.25;;;26.28;47.50
34205;BME280;20471;49.680;20.074;2022-09-09T13:18:34;96988.95;;;26.34;47.48
34205;BME280;20471;49.680;20.074;2022-09-09T13:21:02;96996.05;;;26.37;47.35
34205;BME280;20471;49.680;20.074;2022-09-09T13:23:34;96997.92;;;26.31;47.79
34205;BME280;20471;49.680;20.074;2022-09-09T13:26:25;96990.69;;;26.32;48.19
34205;BME280;20471;49.680;20.074;2022-09-09T13:28:54;96995.62;;;26.33;47.92
34205;BME280;20471;49.680;20.074;2022-09-09T13:31:32;96994.52;;;26.42;48.40
34205;BME280;20471;49.680;20.074;2022-09-09T13:37:00;96990.27;;;26.45;48.18
34205;BME280;20471;49.680;20.074;2022-09-09T13:39:30;96983.91;;;26.36;48.10
34205;BME280;20471;49.680;20.074;2022-09-09T13:42:01;96978.34;;;26.27;48.39
34205;BME280;20471;49.680;20.074;2022-09-09T13:44:33;96976.28;;;26.22;47.98
34205;BME280;20471;49.680;20.074;2022-09-09T13:47:03;96970.11;;;26.16;48.18
34205;BME280;20471;49.680;20.074;2022-09-09T13:49:42;96966.20;;;26.17;47.83
34205;BME280;20471;49.680;20.074;2022-09-09T13:52:15;96956.66;;;26.12;48.34
34205;BME280;20471;49.680;20.074;2022-09-09T13:54:46;96952.83;;;26.10;48.23
34205;BME280;20471;49.680;20.074;2022-09-09T13:57:19;96953.30;;;25.95;47.78
34205;BME280;20471;49.680;20.074;2022-09-09T13:59:50;96957.59;;;25.90;47.29
34205;BME280;20471;49.680;20.074;2022-09-09T14:02:18;96960.91;;;25.81;47.62
34205;BME280;20471;49.680;20.074;2022-09-09T14:04:47;96957.39;;;25.78;48.10
34205;BME280;20471;49.680;20.074;2022-09-09T14:07:17;96961.53;;;25.78;48.44
34205;BME280;20471;49.680;20.074;2022-09-09T14:09:44;96953.99;;;25.81;48.87
34205;BME280;20471;49.680;20.074;2022-09-09T14:12:15;96958.39;;;25.82;48.15
34205;BME280;20471;49.680;20.074;2022-09-09T14:14:42;96959.56;;;25.70;47.65
34205;BME280;20471;49.680;20.074;2022-09-09T14:17:09;96961.27;;;25.68;48.00
34205;BME280;20471;49.680;20.074;2022-09-09T14:19:37;96964.09;;;25.55;47.16
34205;BME280;20471;49.680;20.074;2022-09-09T14:22:05;96963.05;;;25.42;47.32
34205;BME280;20471;49.680;20.074;2022-09-09T14:24:33;96956.37;;;25.34;47.34
34205;BME280;20471;49.680;20.074;2022-09-09T14:27:00;96941.55;;;25.30;47.94
34205;BME280;20471;49.680;20.074;2022-09-09T14:29:29;96943.53;;;25.38;48.13
34205;BME280;20471;49.680;20.074;2022-09-09T14:31:57;96942.77;;;25.46;47.82
34205;BME280;20471;49.680;20.074;2022-09-09T14:34:24;96947.52;;;25.55;47.67
34205;BME280;20471;49.680;20.074;2022-09-09T14:36:52;96951.59;;;25.57;47.07
34205;BME280;20471;49.680;20.074;2022-09-09T14:39:19;96942.61;;;25.63;47.32
34205;BME280;20471;49.680;20.074;2022-09-09T14:41:45;96942.23;;;25.67;47.89
34205;BME280;20471;49.680;20.074;2022-09-09T14:44:17;96944.99;;;25.67;47.32
34205;BME280;20471;49.680;20.074;2022-09-09T14:46:44;96947.25;;;25.65;47.33
34205;BME280;20471;49.680;20.074;2022-09-09T14:49:11;96952.84;;;25.62;47.36
34205;BME280;20471;49.680;20.074;2022-09-09T14:51:39;96953.94;;;25.72;47.58
34205;BME280;20471;49.680;20.074;2022-09-09T14:54:06;96956.64;;;25.75;47.32
34205;BME280;20471;49.680;20.074;2022-09-09T14:56:33;96950.86;;;25.74;47.05
34205;BME280;20471;49.680;20.074;2022-09-09T14:59:04;96944.45;;;25.76;47.11
34205;BME280;20471;49.680;20.074;2022-09-09T15:01:32;96944.77;;;25.74;46.89
34205;BME280;20471;49.680;20.074;2022-09-09T15:04:02;96946.44;;;25.64;46.77
34205;BME280;20471;49.680;20.074;2022-09-09T15:06:31;96934.06;;;25.62;47.17
34205;BME280;20471;49.680;20.074;2022-09-09T15:09:00;96933.44;;;25.65;46.87
34205;BME280;20471;49.680;20.074;2022-09-09T15:11:29;96937.58;;;25.65;47.20
34205;BME280;20471;49.680;20.074;2022-09-09T15:13:57;96930.92;;;25.66;47.16
34205;BME280;20471;49.680;20.074;2022-09-09T15:16:26;96938.71;;;25.64;47.35
34205;BME280;20471;49.680;20.074;2022-09-09T15:18:56;96942.92;;;25.61;47.44
34205;BME280;20471;49.680;20.074;2022-09-09T15:21:26;96950.41;;;25.49;47.03
34205;BME280;20471;49.680;20.074;2022-09-09T15:23:56;96947.42;;;25.37;47.01